sensor_id;sensor_type;location;lat;lon;timestamp;P1;durP1;ratioP1;P2;durP2;ratioP2
5805;SDS011;2929;50.810;8.342;2024-03-08T00:00:20;30.10;;;14.20;;
5805;SDS011;2929;50.810;8.342;2024-03-08T00:02:47;27.50;;;13.57;;
5805;SDS011;2929;50.810;8.342;2024-03-08T00:05:17;33.97;;;15.40;;
5805;SDS011;2929;50.810;8.342;2024-03-08T00:07:44;32.90;;;14.33;;
5805;SDS011;2929;50.810;8.342;2024-03-08T00:10:12;30.23;;;13.90;;
5805;SDS011;2929;50.810;8.342;2024-03-08T00:12:39;32.00;;;14.70;;
5805;SDS011;2929;50.810;8.342;2024-03-08T00:15:07;25.27;;;13.93;;
5805;SDS011;2929;50.810;8.342;2024-03-08T00:17:38;28.17;;;15.03;;
5805;SDS011;2929;50.810;8.342;2024-03-08T00:20:05;29.60;;;15.57;;
5805;SDS011;2929;50.810;8.342;2024-03-08T00:22:35;34.37;;;17.97;;
5805;SDS011;2929;50.810;8.342;2024-03-08T00:25:04;27.27;;;14.47;;
5805;SDS011;2929;50.810;8.342;2024-03-08T00:27:33;28.43;;;15.60;;
5805;SDS011;2929;50.810;8.342;2024-03-08T00:30:01;32.87;;;16.37;;
5805;SDS011;2929;50.810;8.342;2024-03-08T00:32:29;28.60;;;14.03;;
5805;SDS011;2929;50.810;8.342;2024-03-08T00:34:57;28.03;;;14.70;;
5805;SDS011;2929;50.810;8.342;2024-03-08T00:37:24;30.90;;;15.77;;
5805;SDS011;2929;50.810;8.342;2024-03-08T00:39:52;34.83;;;15.60;;
5805;SDS011;2929;50.810;8.342;2024-03-08T00:42:19;31.47;;;15.00;;
5805;SDS011;2929;50.810;8.342;2024-03-08T00:44:47;28.17;;;13.30;;
5805;SDS011;2929;50.810;8.342;2024-03-08T00:47:16;28.00;;;14.50;;
5805;SDS011;2929;50.810;8.342;2024-03-08T00:49:43;32.37;;;15.50;;
5805;SDS011;2929;50.810;8.342;2024-03-08T00:52:09;27.37;;;14.47;;
5805;SDS011;2929;50.810;8.342;2024-03-08T00:54:36;36.60;;;15.57;;
5805;SDS011;2929;50.810;8.342;2024-03-08T00:57:05;31.00;;;15.63;;
5805;SDS011;2929;50.810;8.342;2024-03-08T00:59:32;31.10;;;14.53;;
5805;SDS011;2929;50.810;8.342;2024-03-08T01:01:59;34.37;;;14.60;;
5805;SDS011;2929;50.810;8.342;2024-03-08T01:04:26;29.00;;;15.17;;
5805;SDS011;2929;50.810;8.342;2024-03-08T01:06:55;28.07;;;13.90;;
5805;SDS011;2929;50.810;8.342;2024-03-08T01:09:22;28.73;;;14.30;;
5805;SDS011;2929;50.810;8.342;2024-03-08T01:11:49;31.30;;;13.60;;
5805;SDS011;2929;50.810;8.342;2024-03-08T01:14:17;30.80;;;15.00;;
5805;SDS011;2929;50.810;8.342;2024-03-08T01:16:44;36.23;;;14.00;;
5805;SDS011;2929;50.810;8.342;2024-03-08T01:19:11;26.90;;;14.90;;
5805;SDS011;2929;50.810;8.342;2024-03-08T01:21:38;31.30;;;14.90;;
5805;SDS011;2929;50.810;8.342;2024-03-08T01:24:05;31.13;;;15.73;;
5805;SDS011;2929;50.810;8.342;2024-03-08T01:26:32;28.50;;;14.70;;
5805;SDS011;2929;50.810;8.342;2024-03-08T01:29:00;30.10;;;14.73;;
5805;SDS011;2929;50.810;8.342;2024-03-08T01:31:29;32.40;;;15.80;;
5805;SDS011;2929;50.810;8.342;2024-03-08T01:33:56;31.63;;;14.87;;
5805;SDS011;2929;50.810;8.342;2024-03-08T01:36:23;29.33;;;15.33;;
5805;SDS011;2929;50.810;8.342;2024-03-08T01:38:50;33.97;;;15.33;;
5805;SDS011;2929;50.810;8.342;2024-03-08T01:41:18;31.93;;;15.10;;
5805;SDS011;2929;50.810;8.342;2024-03-08T01:43:45;32.90;;;15.03;;
5805;SDS011;2929;50.810;8.342;2024-03-08T01:46:13;34.00;;;16.60;;
5805;SDS011;2929;50.810;8.342;2024-03-08T01:48:45;37.13;;;15.87;;
5805;SDS011;2929;50.810;8.342;2024-03-08T01:51:12;37.43;;;17.50;;
5805;SDS011;2929;50.810;8.342;2024-03-08T01:53:40;30.80;;;15.00;;
5805;SDS011;2929;50.810;8.342;2024-03-08T01:56:10;32.53;;;14.63;;
5805;SDS011;2929;50.810;8.342;2024-03-08T01:58:39;33.33;;;17.10;;
5805;SDS011;2929;50.810;8.342;2024-03-08T02:01:08;34.73;;;14.73;;
5805;SDS011;2929;50.810;8.342;2024-03-08T02:03:38;40.13;;;15.23;;
5805;SDS011;2929;50.810;8.342;2024-03-08T02:06:06;28.30;;;13.67;;
5805;SDS011;2929;50.810;8.342;2024-03-08T02:08:35;35.17;;;15.80;;
5805;SDS011;2929;50.810;8.342;2024-03-08T02:11:02;34.07;;;15.57;;
5805;SDS011;2929;50.810;8.342;2024-03-08T02:13:31;35.00;;;15.60;;
5805;SDS011;2929;50.810;8.342;2024-03-08T02:15:59;30.50;;;15.77;;
5805;SDS011;2929;50.810;8.342;2024-03-08T02:18:27;27.43;;;14.00;;
5805;SDS011;2929;50.810;8.342;2024-03-08T02:20:57;31.30;;;16.50;;
5805;SDS011;2929;50.810;8.342;2024-03-08T02:23:25;32.83;;;15.57;;
5805;SDS011;2929;50.810;8.342;2024-03-08T02:25:53;32.80;;;15.50;;
5805;SDS011;2929;50.810;8.342;2024-03-08T02:28:21;32.07;;;14.90;;
5805;SDS011;2929;50.810;8.342;2024-03-08T02:30:49;31.60;;;15.70;;
5805;SDS011;2929;50.810;8.342;2024-03-08T02:33:20;37.40;;;15.07;;
5805;SDS011;2929;50.810;8.342;2024-03-08T02:35:47;31.07;;;15.20;;
5805;SDS011;2929;50.810;8.342;2024-03-08T02:38:16;28.27;;;15.37;;
5805;SDS011;2929;50.810;8.342;2024-03-08T02:40:44;27.77;;;14.60;;
5805;SDS011;2929;50.810;8.342;2024-03-08T02:43:11;36.40;;;16.33;;
5805;SDS011;2929;50.810;8.342;2024-03-08T02:45:39;30.23;;;15.27;;
5805;SDS011;2929;50.810;8.342;2024-03-08T02:48:07;39.00;;;16.67;;
5805;SDS011;2929;50.810;8.342;2024-03-08T02:50:34;30.60;;;15.33;;
5805;SDS011;2929;50.810;8.342;2024-03-08T02:53:01;32.70;;;16.20;;
5805;SDS011;2929;50.810;8.342;2024-03-08T02:55:30;30.70;;;15.80;;
5805;SDS011;2929;50.810;8.342;2024-03-08T02:57:58;35.23;;;16.03;;
5805;SDS011;2929;50.810;8.342;2024-03-08T03:00:25;32.87;;;15.43;;
5805;SDS011;2929;50.810;8.342;2024-03-08T03:02:53;30.17;;;13.87;;
5805;SDS011;2929;50.810;8.342;2024-03-08T03:05:20;31.67;;;15.57;;
5805;SDS011;2929;50.810;8.342;2024-03-08T03:07:48;27.93;;;16.00;;
5805;SDS011;2929;50.810;8.342;2024-03-08T03:10:16;33.03;;;16.37;;
5805;SDS011;2929;50.810;8.342;2024-03-08T03:12:47;32.97;;;16.43;;
5805;SDS011;2929;50.810;8.342;2024-03-08T03:15:17;33.90;;;16.57;;
5805;SDS011;2929;50.810;8.342;2024-03-08T03:17:46;36.20;;;14.60;;
5805;SDS011;2929;50.810;8.342;2024-03-08T03:20:17;28.60;;;14.80;;
5805;SDS011;2929;50.810;8.342;2024-03-08T03:22:51;31.23;;;15.10;;
5805;SDS011;2929;50.810;8.342;2024-03-08T03:25:19;30.60;;;13.60;;
5805;SDS011;2929;50.810;8.342;2024-03-08T03:27:52;32.53;;;15.57;;
5805;SDS011;2929;50.810;8.342;2024-03-08T03:30:21;36.97;;;15.93;;
5805;SDS011;2929;50.810;8.342;2024-03-08T03:32:48;35.13;;;16.20;;
5805;SDS011;2929;50.810;8.342;2024-03-08T03:35:16;37.90;;;15.40;;
5805;SDS011;2929;50.810;8.342;2024-03-08T03:37:44;30.10;;;13.20;;
5805;SDS011;2929;50.810;8.342;2024-03-08T03:40:26;28.83;;;14.40;;
5805;SDS011;2929;50.810;8.342;2024-03-08T03:42:55;32.93;;;15.00;;
5805;SDS011;2929;50.810;8.342;2024-03-08T03:45:22;33.70;;;15.13;;
5805;SDS011;2929;50.810;8.342;2024-03-08T03:47:49;31.90;;;14.47;;
5805;SDS011;2929;50.810;8.342;2024-03-08T03:50:17;23.87;;;13.60;;
5805;SDS011;2929;50.810;8.342;2024-03-08T03:52:45;29.50;;;15.10;;
5805;SDS011;2929;50.810;8.342;2024-03-08T03:55:12;32.00;;;14.53;;
5805;SDS011;2929;50.810;8.342;2024-03-08T03:57:39;32.20;;;15.10;;
5805;SDS011;2929;50.810;8.342;2024-03-08T04:00:08;29.80;;;15.13;;
5805;SDS011;2929;50.810;8.342;2024-03-08T04:02:39;27.93;;;14.50;;
5805;SDS011;2929;50.810;8.342;2024-03-08T04:05:07;32.10;;;15.27;;
5805;SDS011;2929;50.810;8.342;2024-03-08T04:07:35;29.00;;;13.77;;
5805;SDS011;2929;50.810;8.342;2024-03-08T04:10:05;37.33;;;15.63;;
5805;SDS011;2929;50.810;8.342;2024-03-08T04:12:33;30.60;;;15.00;;
5805;SDS011;2929;50.810;8.342;2024-03-08T04:15:00;27.77;;;13.80;;
5805;SDS011;2929;50.810;8.342;2024-03-08T04:17:29;29.67;;;15.03;;
5805;SDS011;2929;50.810;8.342;2024-03-08T04:19:56;35.90;;;15.73;;
5805;SDS011;2929;50.810;8.342;2024-03-08T04:22:23;30.90;;;13.40;;
5805;SDS011;2929;50.810;8.342;2024-03-08T04:24:52;31.20;;;14.03;;
5805;SDS011;2929;50.810;8.342;2024-03-08T04:27:18;32.93;;;14.30;;
5805;SDS011;2929;50.810;8.342;2024-03-08T04:29:45;32.87;;;15.73;;
5805;SDS011;2929;50.810;8.342;2024-03-08T04:32:12;30.07;;;13.40;;
5805;SDS011;2929;50.810;8.342;2024-03-08T04:34:41;37.23;;;15.67;;
5805;SDS011;2929;50.810;8.342;2024-03-08T04:37:07;30.63;;;14.90;;
5805;SDS011;2929;50.810;8.342;2024-03-08T04:39:38;32.93;;;15.67;;
5805;SDS011;2929;50.810;8.342;2024-03-08T04:42:05;31.23;;;14.43;;
5805;SDS011;2929;50.810;8.342;2024-03-08T04:44:35;36.60;;;15.57;;
5805;SDS011;2929;50.810;8.342;2024-03-08T04:47:02;32.83;;;15.70;;
5805;SDS011;2929;50.810;8.342;2024-03-08T04:49:31;33.43;;;15.47;;
5805;SDS011;2929;50.810;8.342;2024-03-08T04:52:01;35.20;;;15.47;;
5805;SDS011;2929;50.810;8.342;2024-03-08T04:54:29;28.00;;;14.30;;
5805;SDS011;2929;50.810;8.342;2024-03-08T04:56:56;33.17;;;14.70;;
5805;SDS011;2929;50.810;8.342;2024-03-08T04:59:25;35.20;;;16.90;;
5805;SDS011;2929;50.810;8.342;2024-03-08T05:01:52;30.83;;;14.73;;
5805;SDS011;2929;50.810;8.342;2024-03-08T05:04:19;30.33;;;14.80;;
5805;SDS011;2929;50.810;8.342;2024-03-08T05:06:46;31.27;;;14.80;;
5805;SDS011;2929;50.810;8.342;2024-03-08T05:09:15;32.53;;;13.80;;
5805;SDS011;2929;50.810;8.342;2024-03-08T05:11:44;35.87;;;14.93;;
5805;SDS011;2929;50.810;8.342;2024-03-08T05:14:12;33.53;;;15.57;;
5805;SDS011;2929;50.810;8.342;2024-03-08T05:16:41;31.90;;;14.33;;
5805;SDS011;2929;50.810;8.342;2024-03-08T05:19:09;34.07;;;15.60;;
5805;SDS011;2929;50.810;8.342;2024-03-08T05:21:36;36.90;;;15.20;;
5805;SDS011;2929;50.810;8.342;2024-03-08T05:24:05;31.47;;;14.40;;
5805;SDS011;2929;50.810;8.342;2024-03-08T05:26:34;36.47;;;16.07;;
5805;SDS011;2929;50.810;8.342;2024-03-08T05:29:02;36.97;;;15.20;;
5805;SDS011;2929;50.810;8.342;2024-03-08T05:31:30;28.63;;;15.07;;
5805;SDS011;2929;50.810;8.342;2024-03-08T05:34:04;32.30;;;13.07;;
5805;SDS011;2929;50.810;8.342;2024-03-08T05:36:35;33.93;;;15.50;;
5805;SDS011;2929;50.810;8.342;2024-03-08T05:39:02;29.83;;;14.20;;
5805;SDS011;2929;50.810;8.342;2024-03-08T05:41:31;29.70;;;14.93;;
5805;SDS011;2929;50.810;8.342;2024-03-08T05:43:59;36.83;;;16.60;;
5805;SDS011;2929;50.810;8.342;2024-03-08T05:46:26;35.97;;;15.60;;
5805;SDS011;2929;50.810;8.342;2024-03-08T05:48:53;38.13;;;14.90;;
5805;SDS011;2929;50.810;8.342;2024-03-08T05:51:20;47.33;;;18.00;;
5805;SDS011;2929;50.810;8.342;2024-03-08T05:53:51;40.13;;;16.70;;
5805;SDS011;2929;50.810;8.342;2024-03-08T05:56:18;39.17;;;15.97;;
5805;SDS011;2929;50.810;8.342;2024-03-08T05:58:45;34.67;;;16.00;;
5805;SDS011;2929;50.810;8.342;2024-03-08T06:01:15;32.10;;;15.27;;
5805;SDS011;2929;50.810;8.342;2024-03-08T06:03:42;35.27;;;15.97;;
5805;SDS011;2929;50.810;8.342;2024-03-08T06:06:11;39.57;;;17.10;;
5805;SDS011;2929;50.810;8.342;2024-03-08T06:08:38;32.57;;;15.53;;
5805;SDS011;2929;50.810;8.342;2024-03-08T06:11:06;40.93;;;17.13;;
5805;SDS011;2929;50.810;8.342;2024-03-08T06:13:33;38.23;;;15.43;;
5805;SDS011;2929;50.810;8.342;2024-03-08T06:16:00;32.27;;;15.30;;
5805;SDS011;2929;50.810;8.342;2024-03-08T06:18:31;30.97;;;15.33;;
5805;SDS011;2929;50.810;8.342;2024-03-08T06:20:57;32.33;;;15.20;;
5805;SDS011;2929;50.810;8.342;2024-03-08T06:23:24;34.87;;;15.87;;
5805;SDS011;2929;50.810;8.342;2024-03-08T06:25:52;33.13;;;16.57;;
5805;SDS011;2929;50.810;8.342;2024-03-08T06:28:19;38.97;;;15.97;;
5805;SDS011;2929;50.810;8.342;2024-03-08T06:30:46;34.60;;;16.63;;
5805;SDS011;2929;50.810;8.342;2024-03-08T06:33:13;42.77;;;17.53;;
5805;SDS011;2929;50.810;8.342;2024-03-08T06:35:42;39.90;;;16.50;;
5805;SDS011;2929;50.810;8.342;2024-03-08T06:38:10;38.83;;;17.60;;
5805;SDS011;2929;50.810;8.342;2024-03-08T06:40:37;39.47;;;18.10;;
5805;SDS011;2929;50.810;8.342;2024-03-08T06:43:05;36.70;;;16.80;;
5805;SDS011;2929;50.810;8.342;2024-03-08T06:45:32;35.97;;;17.07;;
5805;SDS011;2929;50.810;8.342;2024-03-08T06:48:02;53.07;;;19.50;;
5805;SDS011;2929;50.810;8.342;2024-03-08T06:50:34;40.23;;;16.93;;
5805;SDS011;2929;50.810;8.342;2024-03-08T06:53:04;53.90;;;19.83;;
5805;SDS011;2929;50.810;8.342;2024-03-08T06:55:31;45.50;;;19.50;;
5805;SDS011;2929;50.810;8.342;2024-03-08T06:57:59;47.70;;;19.60;;
5805;SDS011;2929;50.810;8.342;2024-03-08T07:00:26;37.80;;;17.37;;
5805;SDS011;2929;50.810;8.342;2024-03-08T07:02:55;44.87;;;17.70;;
5805;SDS011;2929;50.810;8.342;2024-03-08T07:05:26;42.70;;;18.90;;
5805;SDS011;2929;50.810;8.342;2024-03-08T07:07:52;42.40;;;17.47;;
5805;SDS011;2929;50.810;8.342;2024-03-08T07:10:22;37.70;;;17.50;;
5805;SDS011;2929;50.810;8.342;2024-03-08T07:12:49;39.10;;;17.30;;
5805;SDS011;2929;50.810;8.342;2024-03-08T07:15:16;34.43;;;16.63;;
5805;SDS011;2929;50.810;8.342;2024-03-08T07:17:44;43.37;;;18.13;;
5805;SDS011;2929;50.810;8.342;2024-03-08T07:20:12;40.50;;;18.77;;
5805;SDS011;2929;50.810;8.342;2024-03-08T07:22:40;36.20;;;16.47;;
5805;SDS011;2929;50.810;8.342;2024-03-08T07:25:08;45.23;;;19.73;;
5805;SDS011;2929;50.810;8.342;2024-03-08T07:27:47;46.07;;;17.40;;
5805;SDS011;2929;50.810;8.342;2024-03-08T07:30:14;34.40;;;16.37;;
5805;SDS011;2929;50.810;8.342;2024-03-08T07:33:03;34.07;;;17.07;;
5805;SDS011;2929;50.810;8.342;2024-03-08T07:35:32;37.43;;;16.47;;
5805;SDS011;2929;50.810;8.342;2024-03-08T07:38:02;40.60;;;18.83;;
5805;SDS011;2929;50.810;8.342;2024-03-08T07:40:30;35.23;;;16.30;;
5805;SDS011;2929;50.810;8.342;2024-03-08T07:42:58;38.60;;;18.70;;
5805;SDS011;2929;50.810;8.342;2024-03-08T07:45:27;37.93;;;18.13;;
5805;SDS011;2929;50.810;8.342;2024-03-08T07:47:59;35.40;;;17.00;;
5805;SDS011;2929;50.810;8.342;2024-03-08T07:50:28;35.47;;;18.37;;
5805;SDS011;2929;50.810;8.342;2024-03-08T07:52:59;32.90;;;16.63;;
5805;SDS011;2929;50.810;8.342;2024-03-08T07:55:26;32.87;;;16.87;;
5805;SDS011;2929;50.810;8.342;2024-03-08T07:57:54;36.00;;;15.90;;
5805;SDS011;2929;50.810;8.342;2024-03-08T08:00:22;36.53;;;17.53;;
5805;SDS011;2929;50.810;8.342;2024-03-08T08:02:49;37.03;;;17.27;;
5805;SDS011;2929;50.810;8.342;2024-03-08T08:05:16;40.90;;;18.07;;
5805;SDS011;2929;50.810;8.342;2024-03-08T08:07:43;31.57;;;16.47;;
5805;SDS011;2929;50.810;8.342;2024-03-08T08:10:11;34.60;;;16.37;;
5805;SDS011;2929;50.810;8.342;2024-03-08T08:12:43;32.43;;;15.40;;
5805;SDS011;2929;50.810;8.342;2024-03-08T08:15:10;29.80;;;14.33;;
5805;SDS011;2929;50.810;8.342;2024-03-08T08:17:39;32.70;;;15.03;;
5805;SDS011;2929;50.810;8.342;2024-03-08T08:20:08;31.97;;;16.00;;
5805;SDS011;2929;50.810;8.342;2024-03-08T08:22:37;36.87;;;16.90;;
5805;SDS011;2929;50.810;8.342;2024-03-08T08:25:06;33.77;;;15.87;;
5805;SDS011;2929;50.810;8.342;2024-03-08T08:27:33;31.80;;;16.27;;
5805;SDS011;2929;50.810;8.342;2024-03-08T08:30:01;31.90;;;16.60;;
5805;SDS011;2929;50.810;8.342;2024-03-08T08:32:33;32.50;;;16.07;;
5805;SDS011;2929;50.810;8.342;2024-03-08T08:35:02;33.87;;;16.40;;
5805;SDS011;2929;50.810;8.342;2024-03-08T08:37:30;32.60;;;17.43;;
5805;SDS011;2929;50.810;8.342;2024-03-08T08:39:57;32.40;;;15.37;;
5805;SDS011;2929;50.810;8.342;2024-03-08T08:42:30;31.50;;;15.20;;
5805;SDS011;2929;50.810;8.342;2024-03-08T08:44:57;31.77;;;16.17;;
5805;SDS011;2929;50.810;8.342;2024-03-08T08:47:24;29.40;;;14.40;;
5805;SDS011;2929;50.810;8.342;2024-03-08T08:49:51;32.53;;;17.03;;
5805;SDS011;2929;50.810;8.342;2024-03-08T08:52:21;35.70;;;15.80;;
5805;SDS011;2929;50.810;8.342;2024-03-08T08:54:48;24.00;;;14.23;;
5805;SDS011;2929;50.810;8.342;2024-03-08T08:57:16;33.67;;;16.23;;
5805;SDS011;2929;50.810;8.342;2024-03-08T08:59:43;31.80;;;14.63;;
5805;SDS011;2929;50.810;8.342;2024-03-08T09:02:11;28.37;;;13.60;;
5805;SDS011;2929;50.810;8.342;2024-03-08T09:04:38;27.07;;;14.37;;
5805;SDS011;2929;50.810;8.342;2024-03-08T09:07:05;28.00;;;14.50;;
5805;SDS011;2929;50.810;8.342;2024-03-08T09:09:33;26.57;;;14.77;;
5805;SDS011;2929;50.810;8.342;2024-03-08T09:12:01;27.77;;;13.70;;
5805;SDS011;2929;50.810;8.342;2024-03-08T09:14:28;33.33;;;15.17;;
5805;SDS011;2929;50.810;8.342;2024-03-08T09:16:55;28.93;;;15.33;;
5805;SDS011;2929;50.810;8.342;2024-03-08T09:19:22;29.47;;;14.40;;
5805;SDS011;2929;50.810;8.342;2024-03-08T09:21:51;26.63;;;13.43;;
5805;SDS011;2929;50.810;8.342;2024-03-08T09:24:18;25.60;;;13.30;;
5805;SDS011;2929;50.810;8.342;2024-03-08T09:26:46;26.87;;;13.77;;
5805;SDS011;2929;50.810;8.342;2024-03-08T09:29:13;28.17;;;14.47;;
5805;SDS011;2929;50.810;8.342;2024-03-08T09:31:40;23.80;;;13.50;;
5805;SDS011;2929;50.810;8.342;2024-03-08T09:34:07;27.40;;;15.07;;
5805;SDS011;2929;50.810;8.342;2024-03-08T09:36:34;26.70;;;14.20;;
5805;SDS011;2929;50.810;8.342;2024-03-08T09:39:02;26.30;;;13.77;;
5805;SDS011;2929;50.810;8.342;2024-03-08T09:41:32;23.30;;;12.70;;
5805;SDS011;2929;50.810;8.342;2024-03-08T09:44:01;24.67;;;13.30;;
5805;SDS011;2929;50.810;8.342;2024-03-08T09:46:29;22.87;;;11.27;;
5805;SDS011;2929;50.810;8.342;2024-03-08T09:48:56;20.60;;;12.40;;
5805;SDS011;2929;50.810;8.342;2024-03-08T09:51:25;31.93;;;13.03;;
5805;SDS011;2929;50.810;8.342;2024-03-08T09:53:56;27.17;;;13.10;;
5805;SDS011;2929;50.810;8.342;2024-03-08T09:56:24;21.33;;;12.87;;
5805;SDS011;2929;50.810;8.342;2024-03-08T09:58:53;27.33;;;12.03;;
5805;SDS011;2929;50.810;8.342;2024-03-08T10:01:46;24.07;;;11.53;;
5805;SDS011;2929;50.810;8.342;2024-03-08T10:04:15;26.77;;;12.90;;
5805;SDS011;2929;50.810;8.342;2024-03-08T10:06:47;24.03;;;12.53;;
5805;SDS011;2929;50.810;8.342;2024-03-08T10:09:14;24.47;;;12.20;;
5805;SDS011;2929;50.810;8.342;2024-03-08T10:11:41;23.67;;;12.63;;
5805;SDS011;2929;50.810;8.342;2024-03-08T10:14:08;22.60;;;12.40;;
5805;SDS011;2929;50.810;8.342;2024-03-08T10:16:36;26.07;;;13.53;;
5805;SDS011;2929;50.810;8.342;2024-03-08T10:19:06;24.17;;;12.83;;
5805;SDS011;2929;50.810;8.342;2024-03-08T10:21:34;23.80;;;12.37;;
5805;SDS011;2929;50.810;8.342;2024-03-08T10:24:02;24.60;;;12.90;;
5805;SDS011;2929;50.810;8.342;2024-03-08T10:26:29;22.17;;;12.77;;
5805;SDS011;2929;50.810;8.342;2024-03-08T10:28:56;25.70;;;12.90;;
5805;SDS011;2929;50.810;8.342;2024-03-08T10:31:24;24.67;;;12.97;;
5805;SDS011;2929;50.810;8.342;2024-03-08T10:33:51;24.27;;;14.17;;
5805;SDS011;2929;50.810;8.342;2024-03-08T10:36:19;24.67;;;13.70;;
5805;SDS011;2929;50.810;8.342;2024-03-08T10:38:46;23.97;;;13.00;;
5805;SDS011;2929;50.810;8.342;2024-03-08T10:41:13;24.53;;;13.20;;
5805;SDS011;2929;50.810;8.342;2024-03-08T10:43:50;25.80;;;13.37;;
5805;SDS011;2929;50.810;8.342;2024-03-08T10:46:35;20.67;;;11.40;;
5805;SDS011;2929;50.810;8.342;2024-03-08T10:49:16;22.27;;;12.97;;
5805;SDS011;2929;50.810;8.342;2024-03-08T10:51:47;21.37;;;13.70;;
5805;SDS011;2929;50.810;8.342;2024-03-08T10:54:17;28.90;;;13.03;;
5805;SDS011;2929;50.810;8.342;2024-03-08T10:56:45;22.37;;;13.07;;
5805;SDS011;2929;50.810;8.342;2024-03-08T10:59:15;20.13;;;11.67;;
5805;SDS011;2929;50.810;8.342;2024-03-08T11:01:44;18.50;;;10.53;;
5805;SDS011;2929;50.810;8.342;2024-03-08T11:04:11;25.33;;;13.10;;
5805;SDS011;2929;50.810;8.342;2024-03-08T11:06:41;20.80;;;12.20;;
5805;SDS011;2929;50.810;8.342;2024-03-08T11:09:19;23.90;;;12.30;;
5805;SDS011;2929;50.810;8.342;2024-03-08T11:14:46;19.90;;;12.70;;
5805;SDS011;2929;50.810;8.342;2024-03-08T11:17:15;19.20;;;11.97;;
5805;SDS011;2929;50.810;8.342;2024-03-08T11:19:46;20.20;;;12.50;;
5805;SDS011;2929;50.810;8.342;2024-03-08T11:22:21;22.77;;;12.30;;
5805;SDS011;2929;50.810;8.342;2024-03-08T11:24:53;22.00;;;11.70;;
5805;SDS011;2929;50.810;8.342;2024-03-08T11:27:28;24.47;;;11.97;;
5805;SDS011;2929;50.810;8.342;2024-03-08T11:29:59;21.13;;;12.30;;
5805;SDS011;2929;50.810;8.342;2024-03-08T11:32:36;26.20;;;11.87;;
5805;SDS011;2929;50.810;8.342;2024-03-08T11:35:05;22.37;;;12.60;;
5805;SDS011;2929;50.810;8.342;2024-03-08T11:37:37;28.00;;;14.13;;
5805;SDS011;2929;50.810;8.342;2024-03-08T11:40:11;21.50;;;12.10;;
5805;SDS011;2929;50.810;8.342;2024-03-08T11:42:43;20.90;;;13.03;;
5805;SDS011;2929;50.810;8.342;2024-03-08T11:45:13;23.23;;;13.73;;
5805;SDS011;2929;50.810;8.342;2024-03-08T11:47:41;23.77;;;13.17;;
5805;SDS011;2929;50.810;8.342;2024-03-08T11:50:11;31.10;;;16.37;;
5805;SDS011;2929;50.810;8.342;2024-03-08T11:52:38;23.27;;;13.80;;
5805;SDS011;2929;50.810;8.342;2024-03-08T11:55:07;28.23;;;13.73;;
5805;SDS011;2929;50.810;8.342;2024-03-08T11:57:36;20.80;;;12.60;;
5805;SDS011;2929;50.810;8.342;2024-03-08T12:00:03;21.50;;;12.10;;
5805;SDS011;2929;50.810;8.342;2024-03-08T12:02:35;21.93;;;13.00;;
5805;SDS011;2929;50.810;8.342;2024-03-08T12:05:07;19.13;;;12.17;;
5805;SDS011;2929;50.810;8.342;2024-03-08T12:07:35;22.37;;;13.00;;
5805;SDS011;2929;50.810;8.342;2024-03-08T12:10:14;19.57;;;11.37;;
5805;SDS011;2929;50.810;8.342;2024-03-08T12:12:44;24.50;;;12.47;;
5805;SDS011;2929;50.810;8.342;2024-03-08T12:15:12;19.83;;;12.27;;
5805;SDS011;2929;50.810;8.342;2024-03-08T12:17:43;20.90;;;12.10;;
5805;SDS011;2929;50.810;8.342;2024-03-08T12:20:14;20.10;;;11.43;;
5805;SDS011;2929;50.810;8.342;2024-03-08T12:22:42;20.17;;;11.70;;
5805;SDS011;2929;50.810;8.342;2024-03-08T12:25:10;22.43;;;11.77;;
5805;SDS011;2929;50.810;8.342;2024-03-08T12:27:39;23.70;;;12.30;;
5805;SDS011;2929;50.810;8.342;2024-03-08T12:30:18;21.37;;;11.93;;
5805;SDS011;2929;50.810;8.342;2024-03-08T12:32:51;23.00;;;12.30;;
5805;SDS011;2929;50.810;8.342;2024-03-08T12:35:21;21.77;;;13.30;;
5805;SDS011;2929;50.810;8.342;2024-03-08T12:37:49;21.30;;;11.97;;
5805;SDS011;2929;50.810;8.342;2024-03-08T12:40:17;25.70;;;11.77;;
5805;SDS011;2929;50.810;8.342;2024-03-08T12:42:44;19.97;;;12.70;;
5805;SDS011;2929;50.810;8.342;2024-03-08T12:45:13;25.37;;;12.57;;
5805;SDS011;2929;50.810;8.342;2024-03-08T12:47:42;23.70;;;14.30;;
5805;SDS011;2929;50.810;8.342;2024-03-08T12:50:09;19.67;;;12.00;;
5805;SDS011;2929;50.810;8.342;2024-03-08T12:52:37;23.43;;;13.20;;
5805;SDS011;2929;50.810;8.342;2024-03-08T12:55:04;22.23;;;12.60;;
5805;SDS011;2929;50.810;8.342;2024-03-08T12:57:33;23.47;;;12.03;;
5805;SDS011;2929;50.810;8.342;2024-03-08T13:00:01;21.27;;;11.70;;
5805;SDS011;2929;50.810;8.342;2024-03-08T13:02:34;21.03;;;12.83;;
5805;SDS011;2929;50.810;8.342;2024-03-08T13:05:13;21.50;;;11.40;;
5805;SDS011;2929;50.810;8.342;2024-03-08T13:07:45;19.37;;;11.77;;
5805;SDS011;2929;50.810;8.342;2024-03-08T13:10:12;19.27;;;11.70;;
5805;SDS011;2929;50.810;8.342;2024-03-08T13:12:41;20.47;;;12.93;;
5805;SDS011;2929;50.810;8.342;2024-03-08T13:15:08;17.17;;;10.80;;
5805;SDS011;2929;50.810;8.342;2024-03-08T13:17:37;21.00;;;10.87;;
5805;SDS011;2929;50.810;8.342;2024-03-08T13:20:07;21.23;;;10.67;;
5805;SDS011;2929;50.810;8.342;2024-03-08T13:22:35;19.90;;;10.87;;
5805;SDS011;2929;50.810;8.342;2024-03-08T13:25:02;18.70;;;11.17;;
5805;SDS011;2929;50.810;8.342;2024-03-08T13:27:31;25.60;;;11.60;;
5805;SDS011;2929;50.810;8.342;2024-03-08T13:30:07;21.43;;;12.50;;
5805;SDS011;2929;50.810;8.342;2024-03-08T13:32:47;17.67;;;10.73;;
5805;SDS011;2929;50.810;8.342;2024-03-08T13:35:28;21.83;;;9.93;;
5805;SDS011;2929;50.810;8.342;2024-03-08T13:38:24;17.77;;;10.00;;
5805;SDS011;2929;50.810;8.342;2024-03-08T13:41:07;14.87;;;9.30;;
5805;SDS011;2929;50.810;8.342;2024-03-08T13:43:37;17.03;;;9.17;;
5805;SDS011;2929;50.810;8.342;2024-03-08T13:46:05;16.37;;;9.50;;
5805;SDS011;2929;50.810;8.342;2024-03-08T13:48:33;14.20;;;8.97;;
5805;SDS011;2929;50.810;8.342;2024-03-08T13:51:04;16.57;;;10.60;;
5805;SDS011;2929;50.810;8.342;2024-03-08T13:53:32;16.23;;;9.90;;
5805;SDS011;2929;50.810;8.342;2024-03-08T13:56:01;15.63;;;9.23;;
5805;SDS011;2929;50.810;8.342;2024-03-08T13:58:28;17.33;;;10.53;;
5805;SDS011;2929;50.810;8.342;2024-03-08T14:00:55;15.10;;;9.87;;
5805;SDS011;2929;50.810;8.342;2024-03-08T14:03:22;13.50;;;9.30;;
5805;SDS011;2929;50.810;8.342;2024-03-08T14:05:50;16.63;;;10.10;;
5805;SDS011;2929;50.810;8.342;2024-03-08T14:08:18;14.80;;;9.50;;
5805;SDS011;2929;50.810;8.342;2024-03-08T14:10:46;13.37;;;8.70;;
5805;SDS011;2929;50.810;8.342;2024-03-08T14:13:14;15.13;;;9.40;;
5805;SDS011;2929;50.810;8.342;2024-03-08T14:15:44;14.77;;;10.00;;
5805;SDS011;2929;50.810;8.342;2024-03-08T14:18:11;15.60;;;9.00;;
5805;SDS011;2929;50.810;8.342;2024-03-08T14:20:39;17.23;;;9.60;;
5805;SDS011;2929;50.810;8.342;2024-03-08T14:23:07;16.00;;;9.93;;
5805;SDS011;2929;50.810;8.342;2024-03-08T14:25:35;12.47;;;9.23;;
5805;SDS011;2929;50.810;8.342;2024-03-08T14:28:02;16.50;;;8.80;;
5805;SDS011;2929;50.810;8.342;2024-03-08T14:30:33;17.60;;;9.87;;
5805;SDS011;2929;50.810;8.342;2024-03-08T14:33:04;14.23;;;8.77;;
5805;SDS011;2929;50.810;8.342;2024-03-08T14:35:34;16.93;;;10.00;;
5805;SDS011;2929;50.810;8.342;2024-03-08T14:38:02;16.93;;;10.03;;
5805;SDS011;2929;50.810;8.342;2024-03-08T14:40:29;15.83;;;8.60;;
5805;SDS011;2929;50.810;8.342;2024-03-08T14:42:58;16.90;;;10.03;;
5805;SDS011;2929;50.810;8.342;2024-03-08T14:45:26;16.27;;;9.43;;
5805;SDS011;2929;50.810;8.342;2024-03-08T14:47:53;15.03;;;10.17;;
5805;SDS011;2929;50.810;8.342;2024-03-08T14:50:20;15.80;;;10.13;;
5805;SDS011;2929;50.810;8.342;2024-03-08T14:52:48;16.90;;;9.27;;
5805;SDS011;2929;50.810;8.342;2024-03-08T14:55:16;15.73;;;9.67;;
5805;SDS011;2929;50.810;8.342;2024-03-08T14:57:47;15.43;;;9.37;;
5805;SDS011;2929;50.810;8.342;2024-03-08T15:00:18;15.00;;;9.20;;